Local Weather Observations
KPOV - Ravena/Portage, Ohio, USA
Distance from station: W 14mi, 23km
Updated: Tue, Feb-20-2018 10:15pm EST
Clear
Clear
 Wind from calm
Wind: Calm
Temperature: 64°F , 18°C
Dew Point: 50°F , 10°C
Humidity: 60%
Barometer: 30.14 inHg , 1020.7 hPa
Clouds: Clear
Visibility: 10 miles , 16 km
2018/02/21 03:15 KPOV 210315Z AUTO 00000KT 10SM CLR 18/10 A3014 RMK AO2 T01760102 PWINO
KYNG - Youngstown, Ohio, USA
Distance from station: ENE 16mi, 27km
Updated: Tue, Feb-20-2018 9:51pm EST
Overcast
Overcast
 Wind from S
Wind: S 10 mph , 17 km/h
Temperature: 68°F , 20°C
Dew Point: 52°F , 11°C
Humidity: 56%
Barometer: 30.13 inHg , 1020.3 hPa
Clouds: Overcast
Visibility: 10 miles , 16 km
Cloud details: Overcast 25000 ft
2018/02/21 02:51 KYNG 210251Z 19009KT 10SM OVC250 20/11 A3013 RMK AO2 SLP198 T02000111 56003 $
 
KAKR - Akron (fulton), Ohio, USA
Distance from station: WSW 28mi, 45km
Updated: Tue, Feb-20-2018 9:54pm EST
Clear
Clear
 Wind from SSW
Wind: SSW 9 mph , 15 km/h
Temperature: 68°F , 20°C
Dew Point: 52°F , 11°C
Humidity: 56%
Barometer: 30.12 inHg , 1020 hPa
Clouds: Clear
Visibility: 10 miles , 16 km
2018/02/21 02:54 KAKR 210254Z AUTO 20008KT 10SM CLR 20/11 A3012 RMK AO2 SLP194 T02000111 53001
KUCP - New Castle Muni, Pennsylvania, USA
Distance from station: ESE 31mi, 50km
Updated: Tue, Feb-20-2018 9:56pm EST
Clear
Clear
 Wind from S
Wind: S 8 mph , 13 km/h
Temperature: 68°F , 20°C
Dew Point: 54°F , 12°C
Humidity: 60%
Barometer: 30.15 inHg , 1021 hPa
Clouds: Clear
Visibility: 10 miles , 16 km
2018/02/21 02:56 KUCP 210256Z AUTO 18007KT 140V210 10SM CLR 20/12 A3015 RMK AO2 SLP222 T02000117 58004
 
KCAK - Akron, Ohio, USA
Distance from station: SW 31mi, 51km
Updated: Tue, Feb-20-2018 9:51pm EST
Few Clouds
Few Clouds
 Wind from SSW
Wind: SSW 14 mph , 22 km/h
Temperature: 66°F , 19°C
Dew Point: 50°F , 10°C
Humidity: 56%
Barometer: 30.13 inHg , 1020.3 hPa
Clouds: Few Clouds
Visibility: 10 miles , 16 km
Cloud details: Few Clouds 25000 ft
2018/02/21 02:51 KCAK 210251Z 20012KT 10SM FEW250 19/10 A3013 RMK AO2 SLP198 T01940100 55004 $